createdAt,value
2023-04-26T00:01:08.626Z,101033.72
2023-04-26T00:03:36.532Z,101047.13
2023-04-26T00:06:06.632Z,101027.44
2023-04-26T00:08:34.207Z,101044.44
2023-04-26T00:11:03.236Z,101030.88
2023-04-26T00:13:30.859Z,101032.56
2023-04-26T00:15:58.516Z,101030.75
2023-04-26T00:18:26.163Z,101039.84
2023-04-26T00:20:53.756Z,101031.72
2023-04-26T00:23:21.477Z,101031.72
2023-04-26T00:25:49.053Z,101031.72
2023-04-26T00:28:17.974Z,101025.47
2023-04-26T00:30:51.674Z,101043.41
2023-04-26T00:33:22.445Z,101035.41
2023-04-26T00:35:50.127Z,101041.72
2023-04-26T00:38:17.744Z,101037.16
2023-04-26T00:40:45.450Z,101030.88
2023-04-26T00:43:13.026Z,101040.84
2023-04-26T00:45:42.000Z,101033.72
2023-04-26T00:48:09.617Z,101040.84
2023-04-26T00:50:37.324Z,101040.00
2023-04-26T00:53:05.132Z,101037.28
2023-04-26T00:55:32.809Z,101046.25
2023-04-26T00:58:00.577Z,101045.41
2023-04-26T01:00:29.676Z,101047.28
2023-04-26T01:02:59.596Z,101051.66
2023-04-26T01:05:27.496Z,101046.25
2023-04-26T01:07:55.082Z,101047.13
2023-04-26T01:10:22.876Z,101058.81
2023-04-26T01:12:51.926Z,101058.81
2023-04-26T01:15:19.551Z,101046.38
2023-04-26T01:17:47.322Z,101054.25
2023-04-26T01:20:16.322Z,101061.38
2023-04-26T01:22:45.701Z,101056.94
2023-04-26T01:25:13.483Z,101058.81
2023-04-26T01:27:41.766Z,101061.38
2023-04-26T01:30:10.085Z,101061.53
2023-04-26T01:32:37.770Z,101061.53
2023-04-26T01:35:06.250Z,101062.50
2023-04-26T01:37:33.895Z,101065.22
2023-04-26T01:40:03.009Z,101060.81
2023-04-26T01:42:31.359Z,101067.91
2023-04-26T01:45:00.697Z,101067.06
2023-04-26T01:47:48.336Z,101068.81
2023-04-26T01:50:16.288Z,101062.50
2023-04-26T01:52:43.920Z,101068.81
2023-04-26T01:55:13.976Z,101074.22
2023-04-26T01:57:42.718Z,101074.34
2023-04-26T02:00:11.388Z,101068.81
2023-04-26T02:02:41.858Z,101068.81
2023-04-26T02:05:10.425Z,101064.22
2023-04-26T02:07:37.982Z,101080.47
2023-04-26T02:10:05.963Z,101069.63
2023-04-26T02:12:34.913Z,101073.34
2023-04-26T02:15:02.573Z,101076.03
2023-04-26T02:17:30.733Z,101077.06
2023-04-26T02:19:59.354Z,101072.63
2023-04-26T02:22:26.994Z,101093.31
2023-04-26T02:24:54.669Z,101071.66
2023-04-26T02:27:27.766Z,101070.75
2023-04-26T02:29:56.924Z,101075.34
2023-04-26T02:32:24.510Z,101067.22
2023-04-26T02:34:52.081Z,101075.34
2023-04-26T02:37:21.874Z,101065.34
2023-04-26T02:39:50.870Z,101064.50
2023-04-26T02:42:18.512Z,101058.25
2023-04-26T02:44:47.269Z,101063.78
2023-04-26T02:47:16.693Z,101069.22
2023-04-26T02:49:44.297Z,101066.50
2023-04-26T02:52:11.892Z,101065.63
2023-04-26T02:54:39.488Z,101070.19
2023-04-26T02:57:08.267Z,101070.19
2023-04-26T02:59:35.893Z,101074.75
2023-04-26T03:02:03.658Z,101063.06
2023-04-26T03:04:34.000Z,101066.78
2023-04-26T03:07:01.916Z,101067.63
2023-04-26T03:09:29.711Z,101068.47
2023-04-26T03:11:57.407Z,101068.47
2023-04-26T03:14:25.052Z,101058.66
2023-04-26T03:16:53.344Z,101064.06
2023-04-26T03:19:21.273Z,101062.22
2023-04-26T03:21:50.309Z,101074.75
2023-04-26T03:24:18.309Z,101081.03
2023-04-26T03:26:46.253Z,101072.19
2023-04-26T03:29:14.084Z,101067.63
2023-04-26T03:31:41.660Z,101077.63
2023-04-26T03:34:09.447Z,101068.78
2023-04-26T03:36:37.213Z,101081.31
2023-04-26T03:39:07.442Z,101068.78
2023-04-26T03:41:39.340Z,101081.44
2023-04-26T03:44:08.217Z,101077.63
2023-04-26T03:46:35.890Z,101081.03
2023-04-26T03:49:03.622Z,101087.44
2023-04-26T03:51:31.422Z,101088.31
2023-04-26T03:53:59.287Z,101082.00
2023-04-26T03:56:28.246Z,101089.28
2023-04-26T03:58:55.989Z,101085.59
2023-04-26T04:01:25.832Z,101083.03
2023-04-26T04:03:53.811Z,101083.03
2023-04-26T04:06:21.834Z,101098.44
2023-04-26T04:08:49.855Z,101099.28
2023-04-26T04:11:17.637Z,101093.84
2023-04-26T04:13:46.613Z,101102.97
2023-04-26T04:16:14.295Z,101103.84
2023-04-26T04:18:42.055Z,101111.78
2023-04-26T04:21:09.729Z,101111.78
2023-04-26T04:23:37.749Z,101106.38
2023-04-26T04:26:10.060Z,101099.28
2023-04-26T04:28:38.646Z,101104.69
2023-04-26T04:31:09.232Z,101115.53
2023-04-26T04:33:37.281Z,101111.09
2023-04-26T04:36:06.660Z,101114.50
2023-04-26T04:38:34.324Z,101117.22
2023-04-26T04:41:04.532Z,101119.91
2023-04-26T04:43:32.946Z,101129.78
2023-04-26T04:46:00.682Z,101122.50
2023-04-26T04:48:29.991Z,101144.00
2023-04-26T04:50:58.351Z,101131.50
2023-04-26T04:53:25.991Z,101134.19
2023-04-26T04:55:53.588Z,101129.63
2023-04-26T04:58:22.389Z,101128.66
2023-04-26T05:00:51.412Z,101141.03
2023-04-26T05:03:26.581Z,101142.91
2023-04-26T05:05:55.768Z,101131.22
2023-04-26T05:08:23.378Z,101138.31
2023-04-26T05:10:51.542Z,101134.63
2023-04-26T05:13:19.177Z,101137.34
2023-04-26T05:15:46.885Z,101136.63
2023-04-26T05:18:14.492Z,101149.03
2023-04-26T05:20:42.582Z,101143.47
2023-04-26T05:23:11.984Z,101147.19
2023-04-26T05:25:39.612Z,101145.19
2023-04-26T05:28:30.059Z,101149.63
2023-04-26T05:31:17.992Z,101153.19
2023-04-26T05:34:05.022Z,101154.91
2023-04-26T05:36:38.497Z,101161.31
2023-04-26T05:39:08.388Z,101159.44
2023-04-26T05:41:36.204Z,101170.41
2023-04-26T05:44:04.143Z,101166.88
2023-04-26T05:46:32.659Z,101182.00
2023-04-26T05:49:00.278Z,101173.00
2023-04-26T05:51:29.054Z,101181.38
2023-04-26T05:53:57.464Z,101182.31
2023-04-26T05:56:26.787Z,101178.69
2023-04-26T05:58:54.459Z,101185.28
2023-04-26T06:01:22.027Z,101195.31
2023-04-26T06:03:51.394Z,101191.03
2023-04-26T06:06:22.384Z,101188.53
2023-04-26T06:08:49.994Z,101179.50
2023-04-26T06:11:17.695Z,101179.59
2023-04-26T06:13:46.698Z,101181.88
2023-04-26T06:16:15.349Z,101182.56
2023-04-26T06:18:43.294Z,101187.03
2023-04-26T06:21:10.938Z,101184.06
2023-04-26T06:23:38.482Z,101181.31
2023-04-26T06:26:06.136Z,101185.94
2023-04-26T06:28:33.653Z,101195.22
2023-04-26T06:31:03.152Z,101185.69
2023-04-26T06:33:31.845Z,101187.63
2023-04-26T06:35:59.727Z,101187.38
2023-04-26T06:38:27.423Z,101187.13
2023-04-26T06:40:55.067Z,101197.28
2023-04-26T06:43:22.692Z,101185.22
2023-04-26T06:46:23.743Z,101191.22
2023-04-26T06:48:55.117Z,101195.53
2023-04-26T06:51:22.752Z,101192.69
2023-04-26T06:53:50.531Z,101188.97
2023-04-26T06:56:18.756Z,101198.38
2023-04-26T06:58:59.046Z,101186.28
2023-04-26T07:01:29.276Z,101197.81
2023-04-26T07:03:58.391Z,101206.69
2023-04-26T07:06:27.025Z,101204.69
2023-04-26T07:08:54.832Z,101194.72
2023-04-26T07:11:24.617Z,101202.69
2023-04-26T07:13:53.838Z,101204.44
2023-04-26T07:16:21.875Z,101201.59
2023-04-26T07:18:51.909Z,101200.47
2023-04-26T07:21:22.952Z,101208.47
2023-04-26T07:23:51.559Z,101217.44
2023-04-26T07:26:19.265Z,101205.63
2023-04-26T07:28:46.893Z,101206.47
2023-04-26T07:31:14.446Z,101225.28
2023-04-26T07:33:42.022Z,101212.47
2023-04-26T07:36:11.386Z,101212.47
2023-04-26T07:38:39.020Z,101215.91
2023-04-26T07:41:06.594Z,101217.63
2023-04-26T07:43:34.179Z,101212.94
2023-04-26T07:46:02.311Z,101222.78
2023-04-26T07:48:30.334Z,101228.19
2023-04-26T07:50:58.104Z,101221.94
2023-04-26T07:53:27.151Z,101219.09
2023-04-26T07:55:54.831Z,101223.50
2023-04-26T07:58:22.514Z,101220.78
2023-04-26T08:00:50.835Z,101227.91
2023-04-26T08:03:18.854Z,101226.94
2023-04-26T08:05:47.336Z,101226.81
2023-04-26T08:08:16.586Z,101215.84
2023-04-26T08:10:46.715Z,101221.13
2023-04-26T08:13:14.309Z,101231.97
2023-04-26T08:15:42.044Z,101230.94
2023-04-26T08:18:09.691Z,101234.53
2023-04-26T08:20:37.284Z,101235.38
2023-04-26T08:23:04.866Z,101230.81
2023-04-26T08:25:34.650Z,101237.97
2023-04-26T08:28:04.989Z,101237.97
2023-04-26T08:30:32.781Z,101236.94
2023-04-26T08:33:01.278Z,101231.53
2023-04-26T08:35:28.900Z,101239.66
2023-04-26T08:37:56.754Z,101241.38
2023-04-26T08:40:24.875Z,101232.31
2023-04-26T08:42:53.533Z,101229.59
2023-04-26T08:45:22.555Z,101234.88
2023-04-26T08:47:50.452Z,101233.03
2023-04-26T08:50:19.946Z,101232.03
2023-04-26T08:52:48.469Z,101233.72
2023-04-26T08:55:16.427Z,101225.63
2023-04-26T08:57:44.074Z,101233.72
2023-04-26T09:00:13.534Z,101237.47
2023-04-26T09:02:43.092Z,101244.56
2023-04-26T09:05:11.916Z,101237.47
2023-04-26T09:07:41.381Z,101231.16
2023-04-26T09:10:09.670Z,101237.47
2023-04-26T09:12:37.485Z,101239.16
2023-04-26T09:15:07.123Z,101235.47
2023-04-26T09:17:35.909Z,101228.31
2023-04-26T09:20:18.144Z,101232.03
2023-04-26T09:22:45.933Z,101234.63
2023-04-26T09:25:14.420Z,101236.31
2023-04-26T09:27:43.174Z,101236.94
2023-04-26T09:30:11.834Z,101241.47
2023-04-26T09:32:46.415Z,101236.94
2023-04-26T09:35:28.506Z,101242.34
2023-04-26T09:38:00.455Z,101232.34
2023-04-26T09:40:32.143Z,101229.66
2023-04-26T09:43:00.265Z,101234.94
2023-04-26T09:45:28.112Z,101218.56
2023-04-26T09:47:56.171Z,101232.09
2023-04-26T09:50:29.010Z,101233.81
2023-04-26T09:52:57.055Z,101230.09
2023-04-26T09:55:34.896Z,101219.25
2023-04-26T09:58:08.864Z,101222.81
2023-04-26T10:00:36.992Z,101221.00
2023-04-26T10:03:04.925Z,101236.34
2023-04-26T10:05:34.531Z,101220.72
2023-04-26T10:08:03.577Z,101227.84
2023-04-26T10:10:31.762Z,101223.28
2023-04-26T10:12:59.290Z,101227.69
2023-04-26T10:15:27.042Z,101234.13
2023-04-26T10:17:54.648Z,101229.56
2023-04-26T10:20:22.345Z,101226.84
2023-04-26T10:22:53.058Z,101232.13
2023-04-26T10:25:21.077Z,101221.31
2023-04-26T10:27:51.762Z,101213.19
2023-04-26T10:30:20.055Z,101210.47
2023-04-26T10:33:13.812Z,101206.78
2023-04-26T10:36:00.267Z,101214.78
2023-04-26T10:38:29.232Z,101209.34
2023-04-26T10:40:58.396Z,101208.47
2023-04-26T10:43:29.168Z,101216.59
2023-04-26T10:45:57.296Z,101220.44
2023-04-26T10:48:29.619Z,101230.41
2023-04-26T10:51:08.862Z,101218.00
2023-04-26T10:53:59.205Z,101227.97
2023-04-26T10:56:45.527Z,101228.97
2023-04-26T10:59:33.348Z,101231.56
2023-04-26T11:02:04.243Z,101238.66
2023-04-26T11:04:46.704Z,101233.25
2023-04-26T11:07:14.740Z,101230.41
2023-04-26T11:09:49.783Z,101241.25
2023-04-26T11:12:17.469Z,101236.69
2023-04-26T11:14:45.611Z,101241.25
2023-04-26T11:17:13.369Z,101241.25
2023-04-26T11:19:42.370Z,101233.25
2023-04-26T11:22:10.024Z,101239.53
2023-04-26T11:24:38.801Z,101239.53
2023-04-26T11:27:10.457Z,101244.09
2023-04-26T11:29:38.203Z,101248.38
2023-04-26T11:32:05.985Z,101249.22
2023-04-26T11:34:34.348Z,101242.97
2023-04-26T11:37:02.845Z,101237.56
2023-04-26T11:39:30.473Z,101245.66
2023-04-26T11:41:58.137Z,101240.25
2023-04-26T11:44:27.080Z,101250.97
2023-04-26T11:46:54.692Z,101247.41
2023-04-26T11:49:22.299Z,101247.28
2023-04-26T11:51:50.466Z,101248.97
2023-04-26T11:54:31.518Z,101250.81
2023-04-26T11:56:59.152Z,101248.13
2023-04-26T11:59:29.116Z,101248.97
2023-04-26T12:01:56.817Z,101260.69
2023-04-26T12:04:29.979Z,101242.69
2023-04-26T12:06:58.198Z,101257.09
2023-04-26T12:09:26.674Z,101255.25
2023-04-26T12:11:59.200Z,101264.38
2023-04-26T12:14:32.802Z,101266.09
2023-04-26T12:17:01.857Z,101266.09
2023-04-26T12:19:29.506Z,101271.50
2023-04-26T12:21:58.640Z,101255.25
2023-04-26T12:24:26.848Z,101273.19
2023-04-26T12:26:54.418Z,101269.50
2023-04-26T12:29:23.420Z,101270.38
2023-04-26T12:31:52.538Z,101253.25
2023-04-26T12:34:20.225Z,101255.97
2023-04-26T12:36:47.853Z,101261.25
2023-04-26T12:39:15.828Z,101260.41
2023-04-26T12:41:43.507Z,101259.53
2023-04-26T12:44:11.339Z,101260.41
2023-04-26T12:46:39.111Z,101257.56
2023-04-26T12:49:08.247Z,101260.41
2023-04-26T12:51:35.948Z,101256.69
2023-04-26T12:54:03.559Z,101262.09
2023-04-26T12:56:31.159Z,101257.56
2023-04-26T12:58:58.732Z,101257.56
2023-04-26T13:01:27.306Z,101256.69
2023-04-26T13:03:56.611Z,101249.31
2023-04-26T13:06:27.730Z,101251.84
2023-04-26T13:08:55.456Z,101247.31
2023-04-26T13:11:23.370Z,101244.47
2023-04-26T13:13:51.241Z,101246.16
2023-04-26T13:16:18.829Z,101248.72
2023-04-26T13:18:46.532Z,101246.78
2023-04-26T13:21:14.100Z,101259.31
2023-04-26T13:23:43.117Z,101242.19
2023-04-26T13:26:10.747Z,101253.88
2023-04-26T13:28:38.491Z,101253.88
2023-04-26T13:31:06.545Z,101259.31
2023-04-26T13:33:34.229Z,101262.00
2023-04-26T13:36:01.777Z,101259.31
2023-04-26T13:38:30.705Z,101264.84
2023-04-26T13:41:01.290Z,101277.56
2023-04-26T13:43:29.156Z,101265.00
2023-04-26T13:45:56.742Z,101266.97
2023-04-26T13:48:25.948Z,101266.97
2023-04-26T13:50:53.577Z,101276.09
2023-04-26T13:53:21.107Z,101271.56
2023-04-26T13:55:48.770Z,101277.81
2023-04-26T13:58:18.141Z,101279.53
2023-04-26T14:00:45.986Z,101267.81
2023-04-26T14:03:13.885Z,101272.41
2023-04-26T14:05:42.122Z,101277.81
2023-04-26T14:08:10.169Z,101266.28
2023-04-26T14:10:38.144Z,101272.41
2023-04-26T14:13:05.962Z,101281.50
2023-04-26T14:15:34.952Z,101277.81
2023-04-26T14:18:02.708Z,101282.38
2023-04-26T14:20:30.255Z,101288.66
2023-04-26T14:22:57.821Z,101278.66
2023-04-26T14:25:26.627Z,101276.84
2023-04-26T14:27:54.189Z,101281.25
2023-04-26T14:30:21.895Z,101280.41
2023-04-26T14:32:50.944Z,101272.28
2023-04-26T14:35:19.076Z,101268.72
2023-04-26T14:37:46.771Z,101274.13
2023-04-26T14:40:14.604Z,101279.53
2023-04-26T14:42:45.695Z,101270.41
2023-04-26T14:45:13.517Z,101273.13
2023-04-26T14:47:41.382Z,101278.41
2023-04-26T14:50:11.292Z,101278.53
2023-04-26T14:52:39.082Z,101271.28
2023-04-26T14:55:17.862Z,101267.81
2023-04-26T14:57:45.517Z,101270.97
2023-04-26T15:00:16.842Z,101271.56
2023-04-26T15:02:44.579Z,101281.25
2023-04-26T15:05:13.677Z,101288.38
2023-04-26T15:07:41.656Z,101275.81
2023-04-26T15:10:09.776Z,101284.97
2023-04-26T15:12:37.365Z,101281.50
2023-04-26T15:15:05.249Z,101268.97
2023-04-26T15:17:32.980Z,101268.97
2023-04-26T15:20:00.723Z,101272.66
2023-04-26T15:22:30.308Z,101268.09
2023-04-26T15:24:57.878Z,101274.41
2023-04-26T15:27:25.536Z,101276.09
2023-04-26T15:29:53.124Z,101282.53
2023-04-26T15:32:20.708Z,101281.66
2023-04-26T15:34:48.578Z,101277.09
2023-04-26T15:37:16.167Z,101283.38
2023-04-26T15:39:45.063Z,101281.50
2023-04-26T15:42:12.628Z,101286.94
2023-04-26T15:44:40.223Z,101285.22
2023-04-26T15:47:07.815Z,101285.94
2023-04-26T15:49:36.249Z,101290.13
2023-04-26T15:52:05.326Z,101288.38
2023-04-26T15:54:32.921Z,101279.53
2023-04-26T15:57:03.902Z,101285.81
2023-04-26T15:59:31.660Z,101289.50
2023-04-26T16:01:59.263Z,101293.22
2023-04-26T16:04:27.568Z,101286.06
2023-04-26T16:06:56.729Z,101297.75
2023-04-26T16:09:25.968Z,101288.91
2023-04-26T16:11:53.745Z,101294.34
2023-04-26T16:14:22.974Z,101288.91
2023-04-26T16:16:50.637Z,101288.91
2023-04-26T16:19:18.329Z,101285.50
2023-04-26T16:21:47.010Z,101289.94
2023-04-26T16:24:17.820Z,101287.22
2023-04-26T16:26:46.395Z,101290.66
2023-04-26T16:29:14.228Z,101279.22
2023-04-26T16:31:45.600Z,101278.34
2023-04-26T16:34:13.273Z,101276.66
2023-04-26T16:36:40.868Z,101285.75
2023-04-26T16:39:08.687Z,101296.59
2023-04-26T16:41:36.453Z,101280.34
2023-04-26T16:44:04.102Z,101289.44
2023-04-26T16:46:32.347Z,101286.88
2023-04-26T16:49:01.479Z,101285.19
2023-04-26T16:51:29.202Z,101283.59
2023-04-26T16:53:57.052Z,101287.28
2023-04-26T16:56:24.677Z,101297.13
2023-04-26T16:58:52.523Z,101291.72
2023-04-26T17:01:20.923Z,101296.28
2023-04-26T17:03:48.765Z,101300.81
2023-04-26T17:06:17.917Z,101297.13
2023-04-26T17:08:45.600Z,101299.97
2023-04-26T17:11:15.049Z,101299.13
2023-04-26T17:13:42.772Z,101303.66
2023-04-26T17:16:10.562Z,101304.53
2023-04-26T17:18:38.207Z,101300.09
2023-04-26T17:21:06.905Z,101314.50
2023-04-26T17:23:35.879Z,101313.78
2023-04-26T17:26:04.298Z,101311.91
2023-04-26T17:28:33.029Z,101312.94
2023-04-26T17:31:00.654Z,101313.91
2023-04-26T17:33:28.355Z,101315.91
2023-04-26T17:35:56.140Z,101311.34
2023-04-26T17:38:23.701Z,101316.88
2023-04-26T17:40:54.608Z,101318.75
2023-04-26T17:43:22.372Z,101323.31
2023-04-26T17:45:50.034Z,101318.88
2023-04-26T17:48:18.228Z,101310.75
2023-04-26T17:50:46.047Z,101324.41
2023-04-26T17:53:13.683Z,101325.41
2023-04-26T17:55:41.278Z,101320.13
2023-04-26T17:58:10.199Z,101327.25
2023-04-26T18:00:37.788Z,101322.09
2023-04-26T18:03:06.410Z,101328.38
2023-04-26T18:05:34.143Z,101329.38
2023-04-26T18:08:01.791Z,101334.94
2023-04-26T18:10:29.483Z,101334.03
2023-04-26T18:12:57.128Z,101332.34
2023-04-26T18:15:26.267Z,101337.75
2023-04-26T18:17:54.329Z,101338.84
2023-04-26T18:20:22.343Z,101340.69
2023-04-26T18:22:50.575Z,101339.94
2023-04-26T18:25:18.427Z,101347.22
2023-04-26T18:27:46.982Z,101351.78
2023-04-26T18:30:14.685Z,101346.38
2023-04-26T18:32:43.638Z,101346.50
2023-04-26T18:35:11.771Z,101355.59
2023-04-26T18:37:39.666Z,101351.91
2023-04-26T18:40:08.263Z,101350.19
2023-04-26T18:42:36.606Z,101353.91
2023-04-26T18:45:04.662Z,101359.31
2023-04-26T18:47:32.296Z,101357.47
2023-04-26T18:50:01.738Z,101358.44
2023-04-26T18:52:29.336Z,101365.72
2023-04-26T18:54:57.496Z,101361.28
2023-04-26T18:57:26.653Z,101358.56
2023-04-26T18:59:56.580Z,101367.56
2023-04-26T19:02:24.313Z,101365.84
2023-04-26T19:04:52.171Z,101365.00
2023-04-26T19:07:21.236Z,101363.25
2023-04-26T19:09:54.148Z,101367.81
2023-04-26T19:12:22.713Z,101368.66
2023-04-26T19:14:50.284Z,101365.13
2023-04-26T19:17:17.972Z,101369.66
2023-04-26T19:19:45.685Z,101370.66
2023-04-26T19:22:13.401Z,101374.34
2023-04-26T19:24:42.418Z,101373.50
2023-04-26T19:27:09.988Z,101374.34
2023-04-26T19:29:38.696Z,101373.50
2023-04-26T19:32:07.095Z,101374.34
2023-04-26T19:34:34.897Z,101372.63
2023-04-26T19:37:02.909Z,101378.03
2023-04-26T19:39:30.630Z,101378.03
2023-04-26T19:42:01.278Z,101376.34
2023-04-26T19:44:28.920Z,101383.44
2023-04-26T19:46:56.675Z,101378.03
2023-04-26T19:49:24.460Z,101372.03
2023-04-26T19:51:52.687Z,101396.25
2023-04-26T19:54:20.267Z,101387.16
2023-04-26T19:56:47.873Z,101378.28
2023-04-26T19:59:16.874Z,101389.09
2023-04-26T20:01:44.525Z,101388.25
2023-04-26T20:04:12.266Z,101393.69
2023-04-26T20:06:39.957Z,101386.53
2023-04-26T20:09:07.931Z,101398.25
2023-04-26T20:11:35.777Z,101396.50
2023-04-26T20:14:03.355Z,101393.94
2023-04-26T20:16:32.508Z,101402.78
2023-04-26T20:19:00.106Z,101401.06
2023-04-26T20:21:29.069Z,101400.19
2023-04-26T20:23:57.043Z,101405.59
2023-04-26T20:26:25.055Z,101403.91
2023-04-26T20:28:52.730Z,101398.50
2023-04-26T20:31:20.523Z,101404.75
2023-04-26T20:33:49.602Z,101403.91
2023-04-26T20:36:17.720Z,101406.72
2023-04-26T20:38:45.393Z,101403.91
2023-04-26T20:41:13.062Z,101402.16
2023-04-26T20:43:41.782Z,101410.28
2023-04-26T20:46:09.511Z,101413.00
2023-04-26T20:48:37.396Z,101401.31
2023-04-26T20:51:08.502Z,101403.19
2023-04-26T20:53:36.345Z,101405.00
2023-04-26T20:56:03.992Z,101409.56
2023-04-26T20:58:31.580Z,101409.56
2023-04-26T21:00:59.387Z,101411.31
2023-04-26T21:03:27.280Z,101413.25
2023-04-26T21:05:55.065Z,101414.13
2023-04-26T21:08:24.015Z,101410.53
2023-04-26T21:10:51.636Z,101417.69
2023-04-26T21:13:20.254Z,101414.13
2023-04-26T21:15:48.175Z,101406.88
2023-04-26T21:18:15.911Z,101410.53
2023-04-26T21:20:43.502Z,101401.56
2023-04-26T21:23:11.150Z,101418.66
2023-04-26T21:25:40.081Z,101411.56
2023-04-26T21:28:08.080Z,101416.97
2023-04-26T21:30:36.591Z,101405.25
2023-04-26T21:33:04.260Z,101417.81
2023-04-26T21:35:31.839Z,101416.72
2023-04-26T21:37:59.316Z,101416.72
2023-04-26T21:40:26.893Z,101417.56
2023-04-26T21:43:04.955Z,101421.13
2023-04-26T21:45:33.670Z,101419.28
2023-04-26T21:48:01.343Z,101425.56
2023-04-26T21:50:28.922Z,101419.28
2023-04-26T21:52:56.481Z,101426.41
2023-04-26T21:55:24.074Z,101429.97
2023-04-26T21:57:51.666Z,101424.72
2023-04-26T22:00:20.990Z,101427.25
2023-04-26T22:02:48.822Z,101424.53
2023-04-26T22:05:16.512Z,101427.25
2023-04-26T22:07:44.226Z,101434.41
2023-04-26T22:10:11.921Z,101437.94
2023-04-26T22:12:39.936Z,101434.41
2023-04-26T22:15:08.224Z,101440.66
2023-04-26T22:17:37.574Z,101444.25
2023-04-26T22:20:05.839Z,101439.81
2023-04-26T22:22:33.401Z,101447.22
2023-04-26T22:25:01.038Z,101449.19
2023-04-26T22:27:29.137Z,101451.78
2023-04-26T22:29:56.737Z,101454.31
2023-04-26T22:32:24.355Z,101446.06
2023-04-26T22:34:53.349Z,101463.19
2023-04-26T22:37:21.738Z,101457.78
2023-04-26T22:39:49.768Z,101463.19
2023-04-26T22:42:17.383Z,101464.91
2023-04-26T22:44:44.915Z,101470.31
2023-04-26T22:47:12.448Z,101467.59
2023-04-26T22:49:39.961Z,101454.31
2023-04-26T22:52:17.049Z,101474.88
2023-04-26T22:54:51.780Z,101463.19
2023-04-26T22:57:19.386Z,101475.72
2023-04-26T22:59:46.974Z,101468.59
2023-04-26T23:02:15.642Z,101467.72
2023-04-26T23:04:43.405Z,101476.72
2023-04-26T23:07:12.371Z,101474.03
2023-04-26T23:09:40.030Z,101474.88
2023-04-26T23:12:07.700Z,101474.03
2023-04-26T23:14:35.379Z,101478.56
2023-04-26T23:17:03.622Z,101474.03
2023-04-26T23:19:31.465Z,101474.03
2023-04-26T23:21:59.134Z,101480.28
2023-04-26T23:24:28.739Z,101485.56
2023-04-26T23:26:56.391Z,101478.44
2023-04-26T23:29:23.975Z,101475.72
2023-04-26T23:31:51.678Z,101481.13
2023-04-26T23:34:19.323Z,101475.72
2023-04-26T23:36:46.886Z,101475.72
2023-04-26T23:39:14.701Z,101480.28
2023-04-26T23:41:43.926Z,101481.13
2023-04-26T23:44:11.515Z,101476.72
2023-04-26T23:46:42.247Z,101471.19
2023-04-26T23:49:10.034Z,101476.59
2023-04-26T23:51:37.741Z,101482.88
2023-04-26T23:54:05.325Z,101473.00
2023-04-26T23:56:32.972Z,101472.03
2023-04-26T23:59:01.955Z,101466.63
